sensor_id;sensor_type;location;lat;lon;timestamp;P1;durP1;ratioP1;P2;durP2;ratioP2
69034;SDS011;56091;55.756;37.412;2022-10-16T00:01:45;10.00;;;4.18;;
69034;SDS011;56091;55.756;37.412;2022-10-16T00:06:47;9.77;;;4.43;;
69034;SDS011;56091;55.756;37.412;2022-10-16T00:11:48;10.05;;;4.05;;
69034;SDS011;56091;55.756;37.412;2022-10-16T00:16:49;9.73;;;4.37;;
69034;SDS011;56091;55.756;37.412;2022-10-16T00:21:50;11.43;;;4.50;;
69034;SDS011;56091;55.756;37.412;2022-10-16T00:27:10;12.83;;;4.60;;
69034;SDS011;56091;55.756;37.412;2022-10-16T00:32:10;12.80;;;5.00;;
69034;SDS011;56091;55.756;37.412;2022-10-16T00:37:12;13.52;;;4.32;;
69034;SDS011;56091;55.756;37.412;2022-10-16T00:42:15;12.57;;;4.53;;
69034;SDS011;56091;55.756;37.412;2022-10-16T00:47:22;11.55;;;4.45;;
69034;SDS011;56091;55.756;37.412;2022-10-16T00:52:28;11.07;;;4.50;;
69034;SDS011;56091;55.756;37.412;2022-10-16T00:57:28;10.40;;;4.55;;
69034;SDS011;56091;55.756;37.412;2022-10-16T01:02:31;10.50;;;3.97;;
69034;SDS011;56091;55.756;37.412;2022-10-16T01:07:44;13.45;;;4.22;;
69034;SDS011;56091;55.756;37.412;2022-10-16T01:12:52;9.13;;;4.27;;
69034;SDS011;56091;55.756;37.412;2022-10-16T01:34:02;10.07;;;4.20;;
69034;SDS011;56091;55.756;37.412;2022-10-16T01:39:04;14.18;;;4.00;;
69034;SDS011;56091;55.756;37.412;2022-10-16T01:44:51;11.20;;;4.30;;
69034;SDS011;56091;55.756;37.412;2022-10-16T01:49:34;8.98;;;4.40;;
69034;SDS011;56091;55.756;37.412;2022-10-16T01:54:39;11.20;;;4.30;;
69034;SDS011;56091;55.756;37.412;2022-10-16T01:59:44;10.13;;;4.18;;
69034;SDS011;56091;55.756;37.412;2022-10-16T02:04:58;8.67;;;4.20;;
69034;SDS011;56091;55.756;37.412;2022-10-16T02:10:05;12.13;;;4.35;;
69034;SDS011;56091;55.756;37.412;2022-10-16T02:15:08;11.13;;;4.57;;
69034;SDS011;56091;55.756;37.412;2022-10-16T02:20:12;11.95;;;4.13;;
69034;SDS011;56091;55.756;37.412;2022-10-16T02:25:19;10.87;;;4.10;;
69034;SDS011;56091;55.756;37.412;2022-10-16T02:30:27;11.75;;;4.45;;
69034;SDS011;56091;55.756;37.412;2022-10-16T02:35:32;10.17;;;4.37;;
69034;SDS011;56091;55.756;37.412;2022-10-16T02:40:34;10.60;;;4.20;;
69034;SDS011;56091;55.756;37.412;2022-10-16T02:45:35;10.77;;;4.13;;
69034;SDS011;56091;55.756;37.412;2022-10-16T02:50:37;9.93;;;4.40;;
69034;SDS011;56091;55.756;37.412;2022-10-16T02:55:40;9.23;;;4.13;;
69034;SDS011;56091;55.756;37.412;2022-10-16T03:00:41;13.43;;;5.25;;
69034;SDS011;56091;55.756;37.412;2022-10-16T03:05:43;13.43;;;4.97;;
69034;SDS011;56091;55.756;37.412;2022-10-16T03:10:46;16.10;;;5.45;;
69034;SDS011;56091;55.756;37.412;2022-10-16T03:15:48;11.63;;;4.93;;
69034;SDS011;56091;55.756;37.412;2022-10-16T03:20:49;31.25;;;5.28;;
69034;SDS011;56091;55.756;37.412;2022-10-16T03:25:50;11.50;;;4.70;;
69034;SDS011;56091;55.756;37.412;2022-10-16T03:30:51;12.03;;;4.70;;
69034;SDS011;56091;55.756;37.412;2022-10-16T03:35:52;10.50;;;4.90;;
69034;SDS011;56091;55.756;37.412;2022-10-16T03:40:54;15.30;;;5.10;;
69034;SDS011;56091;55.756;37.412;2022-10-16T03:45:55;14.80;;;4.97;;
69034;SDS011;56091;55.756;37.412;2022-10-16T03:50:56;10.75;;;4.80;;
69034;SDS011;56091;55.756;37.412;2022-10-16T03:55:57;9.25;;;4.30;;
69034;SDS011;56091;55.756;37.412;2022-10-16T04:01:00;12.00;;;4.53;;
69034;SDS011;56091;55.756;37.412;2022-10-16T04:06:00;11.03;;;4.33;;
69034;SDS011;56091;55.756;37.412;2022-10-16T04:11:02;9.93;;;5.05;;
69034;SDS011;56091;55.756;37.412;2022-10-16T04:16:03;11.40;;;4.50;;
69034;SDS011;56091;55.756;37.412;2022-10-16T04:21:05;10.77;;;4.35;;
69034;SDS011;56091;55.756;37.412;2022-10-16T04:26:06;10.93;;;5.10;;
69034;SDS011;56091;55.756;37.412;2022-10-16T04:31:07;13.45;;;5.10;;
69034;SDS011;56091;55.756;37.412;2022-10-16T04:36:08;11.37;;;4.60;;
69034;SDS011;56091;55.756;37.412;2022-10-16T04:41:09;11.00;;;4.60;;
69034;SDS011;56091;55.756;37.412;2022-10-16T04:46:10;11.97;;;4.90;;
69034;SDS011;56091;55.756;37.412;2022-10-16T04:51:11;13.30;;;4.80;;
69034;SDS011;56091;55.756;37.412;2022-10-16T04:56:12;11.13;;;4.90;;
69034;SDS011;56091;55.756;37.412;2022-10-16T05:01:14;12.60;;;5.07;;
69034;SDS011;56091;55.756;37.412;2022-10-16T05:06:15;9.80;;;4.63;;
69034;SDS011;56091;55.756;37.412;2022-10-16T05:11:16;16.65;;;5.25;;
69034;SDS011;56091;55.756;37.412;2022-10-16T05:16:17;14.67;;;4.87;;
69034;SDS011;56091;55.756;37.412;2022-10-16T05:21:18;11.40;;;4.30;;
69034;SDS011;56091;55.756;37.412;2022-10-16T05:26:19;9.27;;;4.43;;
69034;SDS011;56091;55.756;37.412;2022-10-16T05:31:19;12.30;;;4.83;;
69034;SDS011;56091;55.756;37.412;2022-10-16T05:36:20;13.15;;;4.93;;
69034;SDS011;56091;55.756;37.412;2022-10-16T05:41:21;13.50;;;5.00;;
69034;SDS011;56091;55.756;37.412;2022-10-16T05:46:23;12.05;;;4.95;;
69034;SDS011;56091;55.756;37.412;2022-10-16T05:51:24;13.30;;;5.13;;
69034;SDS011;56091;55.756;37.412;2022-10-16T05:56:25;11.32;;;5.03;;
69034;SDS011;56091;55.756;37.412;2022-10-16T06:01:26;13.32;;;5.30;;
69034;SDS011;56091;55.756;37.412;2022-10-16T06:06:27;11.57;;;5.10;;
69034;SDS011;56091;55.756;37.412;2022-10-16T06:11:33;14.50;;;5.30;;
69034;SDS011;56091;55.756;37.412;2022-10-16T06:16:34;11.95;;;5.63;;
69034;SDS011;56091;55.756;37.412;2022-10-16T06:21:36;13.60;;;5.35;;
69034;SDS011;56091;55.756;37.412;2022-10-16T06:26:37;10.55;;;5.03;;
69034;SDS011;56091;55.756;37.412;2022-10-16T06:31:39;12.15;;;5.25;;
69034;SDS011;56091;55.756;37.412;2022-10-16T06:36:40;15.23;;;4.83;;
69034;SDS011;56091;55.756;37.412;2022-10-16T06:41:41;13.95;;;5.53;;
69034;SDS011;56091;55.756;37.412;2022-10-16T06:46:49;12.13;;;5.00;;
69034;SDS011;56091;55.756;37.412;2022-10-16T06:51:50;12.02;;;5.22;;
69034;SDS011;56091;55.756;37.412;2022-10-16T06:56:51;12.30;;;5.30;;
69034;SDS011;56091;55.756;37.412;2022-10-16T07:01:54;12.43;;;5.20;;
69034;SDS011;56091;55.756;37.412;2022-10-16T07:06:55;13.63;;;5.90;;
69034;SDS011;56091;55.756;37.412;2022-10-16T07:11:56;12.82;;;5.25;;
69034;SDS011;56091;55.756;37.412;2022-10-16T07:16:57;11.57;;;5.70;;
69034;SDS011;56091;55.756;37.412;2022-10-16T07:22:03;15.80;;;5.13;;
69034;SDS011;56091;55.756;37.412;2022-10-16T07:27:05;15.27;;;5.80;;
69034;SDS011;56091;55.756;37.412;2022-10-16T07:32:05;11.93;;;5.03;;
69034;SDS011;56091;55.756;37.412;2022-10-16T07:37:07;11.07;;;5.15;;
69034;SDS011;56091;55.756;37.412;2022-10-16T07:42:07;10.40;;;4.70;;
69034;SDS011;56091;55.756;37.412;2022-10-16T07:47:08;12.43;;;5.20;;
69034;SDS011;56091;55.756;37.412;2022-10-16T07:52:09;10.07;;;5.07;;
69034;SDS011;56091;55.756;37.412;2022-10-16T07:57:10;13.60;;;4.77;;
69034;SDS011;56091;55.756;37.412;2022-10-16T08:02:11;13.35;;;5.65;;
69034;SDS011;56091;55.756;37.412;2022-10-16T08:07:12;12.20;;;4.70;;
69034;SDS011;56091;55.756;37.412;2022-10-16T08:12:13;14.13;;;4.70;;
69034;SDS011;56091;55.756;37.412;2022-10-16T08:17:17;13.03;;;4.27;;
69034;SDS011;56091;55.756;37.412;2022-10-16T08:22:23;13.85;;;4.50;;
69034;SDS011;56091;55.756;37.412;2022-10-16T08:27:24;13.23;;;4.43;;
69034;SDS011;56091;55.756;37.412;2022-10-16T08:32:25;11.98;;;4.22;;
69034;SDS011;56091;55.756;37.412;2022-10-16T08:37:29;13.97;;;4.50;;
69034;SDS011;56091;55.756;37.412;2022-10-16T08:53:05;10.57;;;3.83;;
69034;SDS011;56091;55.756;37.412;2022-10-16T08:58:11;11.10;;;3.92;;
69034;SDS011;56091;55.756;37.412;2022-10-16T09:29:18;14.90;;;4.20;;
69034;SDS011;56091;55.756;37.412;2022-10-16T09:39:46;9.23;;;3.50;;
69034;SDS011;56091;55.756;37.412;2022-10-16T09:44:54;10.67;;;3.70;;
69034;SDS011;56091;55.756;37.412;2022-10-16T09:50:00;10.18;;;3.45;;
69034;SDS011;56091;55.756;37.412;2022-10-16T09:55:19;7.50;;;3.50;;
69034;SDS011;56091;55.756;37.412;2022-10-16T10:00:20;13.32;;;4.18;;
69034;SDS011;56091;55.756;37.412;2022-10-16T10:05:24;11.53;;;3.50;;
69034;SDS011;56091;55.756;37.412;2022-10-16T10:10:28;11.30;;;3.67;;
69034;SDS011;56091;55.756;37.412;2022-10-16T10:15:33;10.67;;;3.80;;
69034;SDS011;56091;55.756;37.412;2022-10-16T10:20:37;13.43;;;3.45;;
69034;SDS011;56091;55.756;37.412;2022-10-16T10:25:42;9.57;;;3.17;;
69034;SDS011;56091;55.756;37.412;2022-10-16T10:46:34;11.20;;;3.70;;
69034;SDS011;56091;55.756;37.412;2022-10-16T10:57:02;9.53;;;3.53;;
69034;SDS011;56091;55.756;37.412;2022-10-16T11:02:20;10.27;;;3.88;;
69034;SDS011;56091;55.756;37.412;2022-10-16T11:07:27;10.23;;;4.10;;
69034;SDS011;56091;55.756;37.412;2022-10-16T11:12:35;8.15;;;3.80;;
69034;SDS011;56091;55.756;37.412;2022-10-16T11:18:19;8.83;;;3.97;;
69034;SDS011;56091;55.756;37.412;2022-10-16T11:23:23;9.13;;;3.58;;
69034;SDS011;56091;55.756;37.412;2022-10-16T11:28:36;11.67;;;3.57;;
69034;SDS011;56091;55.756;37.412;2022-10-16T11:49:49;8.63;;;3.70;;
69034;SDS011;56091;55.756;37.412;2022-10-16T12:00:10;9.77;;;4.00;;
69034;SDS011;56091;55.756;37.412;2022-10-16T12:10:46;10.20;;;3.90;;
69034;SDS011;56091;55.756;37.412;2022-10-16T12:15:48;12.68;;;3.97;;
69034;SDS011;56091;55.756;37.412;2022-10-16T12:20:58;11.87;;;4.10;;
69034;SDS011;56091;55.756;37.412;2022-10-16T12:26:05;12.32;;;3.80;;
69034;SDS011;56091;55.756;37.412;2022-10-16T12:31:07;12.77;;;4.10;;
69034;SDS011;56091;55.756;37.412;2022-10-16T12:36:16;10.60;;;4.28;;
69034;SDS011;56091;55.756;37.412;2022-10-16T12:41:32;12.23;;;4.17;;
69034;SDS011;56091;55.756;37.412;2022-10-16T12:46:40;10.18;;;4.20;;
69034;SDS011;56091;55.756;37.412;2022-10-16T12:51:41;11.93;;;3.73;;
69034;SDS011;56091;55.756;37.412;2022-10-16T13:18:16;10.43;;;3.75;;
69034;SDS011;56091;55.756;37.412;2022-10-16T13:28:51;13.27;;;4.50;;
69034;SDS011;56091;55.756;37.412;2022-10-16T13:33:53;13.37;;;4.93;;
69034;SDS011;56091;55.756;37.412;2022-10-16T13:44:21;14.47;;;4.30;;
69034;SDS011;56091;55.756;37.412;2022-10-16T13:49:22;12.02;;;4.45;;
69034;SDS011;56091;55.756;37.412;2022-10-16T13:54:23;17.23;;;4.27;;
69034;SDS011;56091;55.756;37.412;2022-10-16T13:59:33;10.95;;;4.30;;
69034;SDS011;56091;55.756;37.412;2022-10-16T14:04:37;10.97;;;4.23;;
69034;SDS011;56091;55.756;37.412;2022-10-16T14:09:39;14.60;;;4.25;;
69034;SDS011;56091;55.756;37.412;2022-10-16T14:14:42;13.17;;;5.13;;
69034;SDS011;56091;55.756;37.412;2022-10-16T14:19:47;15.45;;;5.43;;
69034;SDS011;56091;55.756;37.412;2022-10-16T14:24:50;12.97;;;4.63;;
69034;SDS011;56091;55.756;37.412;2022-10-16T14:30:01;10.93;;;4.93;;
69034;SDS011;56091;55.756;37.412;2022-10-16T14:35:44;14.70;;;3.92;;
69034;SDS011;56091;55.756;37.412;2022-10-16T14:40:45;14.17;;;3.87;;
69034;SDS011;56091;55.756;37.412;2022-10-16T14:45:54;11.98;;;4.40;;
69034;SDS011;56091;55.756;37.412;2022-10-16T14:50:57;12.40;;;4.50;;
69034;SDS011;56091;55.756;37.412;2022-10-16T15:01:46;8.93;;;4.10;;
69034;SDS011;56091;55.756;37.412;2022-10-16T15:06:47;12.07;;;4.32;;
69034;SDS011;56091;55.756;37.412;2022-10-16T15:11:48;16.93;;;4.67;;
69034;SDS011;56091;55.756;37.412;2022-10-16T15:16:48;11.65;;;4.60;;
69034;SDS011;56091;55.756;37.412;2022-10-16T15:21:49;12.03;;;4.70;;
69034;SDS011;56091;55.756;37.412;2022-10-16T15:26:51;11.10;;;4.70;;
69034;SDS011;56091;55.756;37.412;2022-10-16T15:31:51;12.17;;;4.83;;
69034;SDS011;56091;55.756;37.412;2022-10-16T15:36:52;13.02;;;4.80;;
69034;SDS011;56091;55.756;37.412;2022-10-16T15:41:55;14.43;;;4.93;;
69034;SDS011;56091;55.756;37.412;2022-10-16T15:46:56;19.17;;;4.97;;
69034;SDS011;56091;55.756;37.412;2022-10-16T15:51:57;12.63;;;4.73;;
69034;SDS011;56091;55.756;37.412;2022-10-16T15:56:58;10.50;;;4.80;;
69034;SDS011;56091;55.756;37.412;2022-10-16T16:01:58;11.20;;;4.30;;
69034;SDS011;56091;55.756;37.412;2022-10-16T16:06:59;10.73;;;4.37;;
69034;SDS011;56091;55.756;37.412;2022-10-16T16:12:01;12.25;;;4.68;;
69034;SDS011;56091;55.756;37.412;2022-10-16T16:17:02;12.53;;;4.30;;
69034;SDS011;56091;55.756;37.412;2022-10-16T16:22:03;11.02;;;4.93;;
69034;SDS011;56091;55.756;37.412;2022-10-16T16:27:04;11.77;;;4.73;;
69034;SDS011;56091;55.756;37.412;2022-10-16T16:32:05;11.37;;;4.63;;
69034;SDS011;56091;55.756;37.412;2022-10-16T16:37:06;11.80;;;4.80;;
69034;SDS011;56091;55.756;37.412;2022-10-16T16:42:07;13.47;;;4.80;;
69034;SDS011;56091;55.756;37.412;2022-10-16T16:47:08;13.73;;;4.53;;
69034;SDS011;56091;55.756;37.412;2022-10-16T16:52:09;11.50;;;4.67;;
69034;SDS011;56091;55.756;37.412;2022-10-16T16:57:10;10.70;;;4.72;;
69034;SDS011;56091;55.756;37.412;2022-10-16T17:02:11;11.83;;;4.70;;
69034;SDS011;56091;55.756;37.412;2022-10-16T17:07:12;13.63;;;4.73;;
69034;SDS011;56091;55.756;37.412;2022-10-16T17:12:12;12.98;;;5.05;;
69034;SDS011;56091;55.756;37.412;2022-10-16T17:17:13;12.27;;;4.80;;
69034;SDS011;56091;55.756;37.412;2022-10-16T17:22:14;14.30;;;4.85;;
69034;SDS011;56091;55.756;37.412;2022-10-16T17:27:15;11.40;;;4.43;;
69034;SDS011;56091;55.756;37.412;2022-10-16T17:32:16;12.13;;;4.63;;
69034;SDS011;56091;55.756;37.412;2022-10-16T17:37:17;13.73;;;4.38;;
69034;SDS011;56091;55.756;37.412;2022-10-16T17:42:18;11.70;;;4.53;;
69034;SDS011;56091;55.756;37.412;2022-10-16T17:47:19;13.80;;;4.45;;
69034;SDS011;56091;55.756;37.412;2022-10-16T17:52:20;14.83;;;4.73;;
69034;SDS011;56091;55.756;37.412;2022-10-16T17:57:20;12.45;;;4.93;;
69034;SDS011;56091;55.756;37.412;2022-10-16T18:02:21;11.10;;;4.97;;
69034;SDS011;56091;55.756;37.412;2022-10-16T18:07:22;11.93;;;5.25;;
69034;SDS011;56091;55.756;37.412;2022-10-16T18:12:24;13.70;;;5.37;;
69034;SDS011;56091;55.756;37.412;2022-10-16T18:17:24;11.10;;;4.82;;
69034;SDS011;56091;55.756;37.412;2022-10-16T18:22:25;11.80;;;4.90;;
69034;SDS011;56091;55.756;37.412;2022-10-16T18:27:26;12.90;;;4.78;;
69034;SDS011;56091;55.756;37.412;2022-10-16T18:32:27;12.20;;;4.57;;
69034;SDS011;56091;55.756;37.412;2022-10-16T18:37:28;9.40;;;4.35;;
69034;SDS011;56091;55.756;37.412;2022-10-16T18:42:32;11.73;;;4.47;;
69034;SDS011;56091;55.756;37.412;2022-10-16T18:47:33;12.30;;;4.33;;
69034;SDS011;56091;55.756;37.412;2022-10-16T18:52:34;10.77;;;4.18;;
69034;SDS011;56091;55.756;37.412;2022-10-16T18:57:35;9.10;;;4.10;;
69034;SDS011;56091;55.756;37.412;2022-10-16T19:02:35;10.32;;;3.90;;
69034;SDS011;56091;55.756;37.412;2022-10-16T19:07:38;12.37;;;4.50;;
69034;SDS011;56091;55.756;37.412;2022-10-16T19:12:39;11.10;;;4.60;;
69034;SDS011;56091;55.756;37.412;2022-10-16T19:17:41;11.40;;;4.43;;
69034;SDS011;56091;55.756;37.412;2022-10-16T19:22:42;8.63;;;4.00;;
69034;SDS011;56091;55.756;37.412;2022-10-16T19:27:55;9.50;;;4.20;;
69034;SDS011;56091;55.756;37.412;2022-10-16T19:32:56;10.02;;;4.40;;
69034;SDS011;56091;55.756;37.412;2022-10-16T19:37:57;13.10;;;4.20;;
69034;SDS011;56091;55.756;37.412;2022-10-16T19:42:58;8.93;;;3.70;;
69034;SDS011;56091;55.756;37.412;2022-10-16T19:47:59;10.13;;;3.83;;
69034;SDS011;56091;55.756;37.412;2022-10-16T19:53:00;8.60;;;3.80;;
69034;SDS011;56091;55.756;37.412;2022-10-16T19:58:01;7.60;;;3.60;;
69034;SDS011;56091;55.756;37.412;2022-10-16T20:03:02;9.13;;;4.43;;
69034;SDS011;56091;55.756;37.412;2022-10-16T20:08:02;11.93;;;5.13;;
69034;SDS011;56091;55.756;37.412;2022-10-16T20:13:03;11.30;;;4.47;;
69034;SDS011;56091;55.756;37.412;2022-10-16T20:18:04;9.18;;;3.78;;
69034;SDS011;56091;55.756;37.412;2022-10-16T20:23:05;10.80;;;3.63;;
69034;SDS011;56091;55.756;37.412;2022-10-16T20:28:07;9.60;;;3.90;;
69034;SDS011;56091;55.756;37.412;2022-10-16T20:33:09;8.25;;;3.60;;
69034;SDS011;56091;55.756;37.412;2022-10-16T20:38:11;12.33;;;4.10;;
69034;SDS011;56091;55.756;37.412;2022-10-16T20:43:13;10.25;;;3.70;;
69034;SDS011;56091;55.756;37.412;2022-10-16T20:48:16;9.47;;;4.07;;
69034;SDS011;56091;55.756;37.412;2022-10-16T20:53:17;10.27;;;3.72;;
69034;SDS011;56091;55.756;37.412;2022-10-16T20:58:17;11.13;;;4.63;;
69034;SDS011;56091;55.756;37.412;2022-10-16T21:03:18;8.07;;;3.63;;
69034;SDS011;56091;55.756;37.412;2022-10-16T21:08:19;8.82;;;3.55;;
69034;SDS011;56091;55.756;37.412;2022-10-16T21:13:20;10.90;;;4.20;;
69034;SDS011;56091;55.756;37.412;2022-10-16T21:18:20;11.43;;;4.07;;
69034;SDS011;56091;55.756;37.412;2022-10-16T21:23:22;10.90;;;3.95;;
69034;SDS011;56091;55.756;37.412;2022-10-16T21:28:23;12.80;;;4.17;;
69034;SDS011;56091;55.756;37.412;2022-10-16T21:33:24;11.57;;;3.67;;
69034;SDS011;56091;55.756;37.412;2022-10-16T21:38:28;11.57;;;3.53;;
69034;SDS011;56091;55.756;37.412;2022-10-16T21:43:28;10.00;;;3.70;;
69034;SDS011;56091;55.756;37.412;2022-10-16T21:48:29;9.17;;;3.83;;
69034;SDS011;56091;55.756;37.412;2022-10-16T21:53:30;11.40;;;3.77;;
69034;SDS011;56091;55.756;37.412;2022-10-16T21:58:31;12.23;;;4.05;;
69034;SDS011;56091;55.756;37.412;2022-10-16T22:03:32;10.00;;;3.83;;
69034;SDS011;56091;55.756;37.412;2022-10-16T22:08:34;11.15;;;4.25;;
69034;SDS011;56091;55.756;37.412;2022-10-16T22:13:35;8.00;;;4.00;;
69034;SDS011;56091;55.756;37.412;2022-10-16T22:18:37;11.00;;;4.20;;
69034;SDS011;56091;55.756;37.412;2022-10-16T22:23:39;9.07;;;4.17;;
69034;SDS011;56091;55.756;37.412;2022-10-16T22:28:39;11.50;;;3.97;;
69034;SDS011;56091;55.756;37.412;2022-10-16T22:33:41;8.77;;;3.83;;
69034;SDS011;56091;55.756;37.412;2022-10-16T22:38:42;9.70;;;4.10;;
69034;SDS011;56091;55.756;37.412;2022-10-16T22:43:44;11.40;;;4.00;;
69034;SDS011;56091;55.756;37.412;2022-10-16T22:48:47;11.03;;;4.27;;
69034;SDS011;56091;55.756;37.412;2022-10-16T22:53:48;9.88;;;4.00;;
69034;SDS011;56091;55.756;37.412;2022-10-16T22:58:50;12.17;;;4.27;;
69034;SDS011;56091;55.756;37.412;2022-10-16T23:03:50;10.85;;;4.40;;
69034;SDS011;56091;55.756;37.412;2022-10-16T23:08:52;9.80;;;4.30;;
69034;SDS011;56091;55.756;37.412;2022-10-16T23:13:54;11.68;;;4.07;;
69034;SDS011;56091;55.756;37.412;2022-10-16T23:18:55;9.00;;;4.35;;
69034;SDS011;56091;55.756;37.412;2022-10-16T23:23:57;9.45;;;4.20;;
69034;SDS011;56091;55.756;37.412;2022-10-16T23:28:58;10.48;;;4.05;;
69034;SDS011;56091;55.756;37.412;2022-10-16T23:33:59;9.52;;;3.95;;
69034;SDS011;56091;55.756;37.412;2022-10-16T23:39:01;10.75;;;4.18;;
69034;SDS011;56091;55.756;37.412;2022-10-16T23:44:04;10.27;;;4.20;;
69034;SDS011;56091;55.756;37.412;2022-10-16T23:49:05;10.32;;;4.20;;
69034;SDS011;56091;55.756;37.412;2022-10-16T23:54:06;9.63;;;4.60;;
69034;SDS011;56091;55.756;37.412;2022-10-16T23:59:06;9.90;;;4.05;;
